Time;durP1;ratioP1;P1;durP2;ratioP2;P2;SDS_P1;SDS_P2;PMS_P1;PMS_P2;Temp;Humidity;BMP_temperature;BMP_pressure;BME280_temperature;BME280_humidity;BME280_pressure;Samples;Min_cycle;Max_cycle;Signal;HPM_P1;HPM_P2
2021/09/16 00:00:13;;;;;;;20.73;15.93;;;17.10;99.90;;;;;;5015501;28;20333;-79
2021/09/16 00:02:40;;;;;;;23.20;16.25;;;17.10;99.90;;;;;;5015412;28;20058;-79
2021/09/16 00:05:06;;;;;;;22.27;16.40;;;17.20;99.90;;;;;;5015591;28;20120;-79
2021/09/16 00:07:33;;;;;;;23.25;16.65;;;17.10;99.90;;;;;;5015066;28;20046;-79
2021/09/16 00:09:58;;;;;;;22.42;17.40;;;17.20;99.90;;;;;;5015323;28;20032;-79
2021/09/16 00:12:24;;;;;;;;;;;17.20;99.90;;;;;;4998065;28;20021;-79
2021/09/16 00:14:50;;;;;;;22.55;17.83;;;17.20;99.90;;;;;;4997630;28;20005;-79
2021/09/16 00:17:16;;;;;;;;;;;17.20;99.90;;;;;;5015539;28;20022;-79
2021/09/16 00:19:41;;;;;;;21.25;16.67;;;17.10;99.90;;;;;;4997495;28;19957;-79
2021/09/16 00:22:07;;;;;;;;;;;17.10;99.90;;;;;;4997822;28;20529;-79
2021/09/16 00:24:33;;;;;;;23.35;16.90;;;17.10;99.90;;;;;;5015131;28;19909;-79
2021/09/16 00:26:58;;;;;;;;;;;17.10;99.90;;;;;;5015392;28;20057;-79
2021/09/16 00:29:24;;;;;;;22.15;16.67;;;17.30;99.90;;;;;;5014817;28;20293;-79
2021/09/16 00:31:50;;;;;;;;;;;17.30;99.90;;;;;;4997715;28;20501;-79
2021/09/16 00:34:15;;;;;;;23.00;16.60;;;17.20;99.90;;;;;;5014794;28;20325;-79
2021/09/16 00:36:41;;;;;;;;;;;17.40;99.90;;;;;;5015130;28;20101;-79
2021/09/16 00:39:07;;;;;;;21.90;15.80;;;17.50;99.90;;;;;;4997388;28;19906;-79
2021/09/16 00:41:32;;;;;;;;;;;17.40;99.90;;;;;;5015115;28;20029;-79
2021/09/16 00:43:58;;;;;;;20.90;16.35;;;17.70;99.90;;;;;;5014421;28;19906;-79
2021/09/16 00:46:24;;;;;;;;;;;17.80;99.90;;;;;;4997151;28;20029;-79
2021/09/16 00:48:50;;;;;;;22.42;15.70;;;18.00;99.90;;;;;;5014727;28;19909;-79
2021/09/16 00:51:16;;;;;;;;;;;18.00;99.90;;;;;;5015176;28;20032;-79
2021/09/16 00:53:42;;;;;;;22.90;17.45;;;17.80;99.90;;;;;;5014481;28;19912;-79
2021/09/16 00:56:09;;;;;;;21.45;16.30;;;17.50;99.90;;;;;;5014388;28;20096;-80
2021/09/16 00:58:40;;;;;;;24.00;18.55;;;17.50;99.90;;;;;;5014368;28;20037;-79
2021/09/16 01:01:07;;;;;;;21.08;16.10;;;17.30;99.90;;;;;;4996701;28;20506;-79
2021/09/16 01:03:33;;;;;;;24.10;18.67;;;17.50;99.90;;;;;;4996672;28;20053;-79
2021/09/16 01:05:59;;;;;;;23.60;17.63;;;17.60;99.90;;;;;;4996439;28;20552;-79
2021/09/16 01:08:26;;;;;;;24.02;17.25;;;17.60;99.90;;;;;;5014242;28;20068;-79
2021/09/16 01:10:52;;;;;;;21.40;16.83;;;17.70;99.90;;;;;;5014108;28;20036;-79
2021/09/16 01:13:18;;;;;;;;;;;17.80;99.90;;;;;;5014488;28;20014;-79
2021/09/16 01:15:45;;;;;;;22.08;17.55;;;17.80;99.90;;;;;;5014266;28;19912;-79
2021/09/16 01:18:11;;;;;;;22.98;17.33;;;17.90;99.90;;;;;;5014013;28;20160;-79
2021/09/16 01:20:37;;;;;;;20.48;15.95;;;17.80;99.90;;;;;;4996344;28;20546;-79
2021/09/16 01:23:03;;;;;;;;;;;17.90;99.90;;;;;;5014378;28;20115;-79
2021/09/16 01:25:31;;;;;;;20.48;16.33;;;18.10;99.90;;;;;;5013871;28;19955;-78
2021/09/16 01:27:58;;;;;;;23.35;16.33;;;18.20;99.90;;;;;;5013918;28;20026;-79
2021/09/16 01:30:25;;;;;;;22.50;16.52;;;18.00;99.90;;;;;;5013737;28;20029;-79
2021/09/16 01:32:52;;;;;;;24.70;18.95;;;17.90;99.90;;;;;;5013854;28;20050;-79
2021/09/16 01:35:18;;;;;;;24.45;17.15;;;17.70;99.90;;;;;;4996176;28;20026;-79
2021/09/16 01:37:44;;;;;;;;;;;17.50;99.90;;;;;;5014122;28;20024;-79
2021/09/16 01:40:10;;;;;;;26.17;19.15;;;17.50;99.90;;;;;;4996111;28;19912;-79
2021/09/16 01:42:41;;;;;;;27.17;20.10;;;17.40;99.90;;;;;;5013691;28;20049;-79
2021/09/16 01:45:15;;;;;;;24.95;17.45;;;17.30;99.90;;;;;;5013943;28;20033;-79
2021/09/16 01:47:43;;;;;;;23.00;18.50;;;17.40;99.90;;;;;;5014164;28;20045;-79
2021/09/16 01:50:11;;;;;;;22.05;16.73;;;17.50;99.90;;;;;;4995858;28;20045;-79
2021/09/16 01:52:36;;;;;;;23.38;18.35;;;17.50;99.90;;;;;;5013504;28;20022;-79
2021/09/16 01:55:02;;;;;;;;;;;17.40;99.90;;;;;;5013946;28;20025;-79
2021/09/16 01:57:28;;;;;;;21.85;16.25;;;17.60;99.90;;;;;;5013441;28;20267;-79
2021/09/16 01:59:54;;;;;;;;;;;17.70;99.90;;;;;;4996296;28;20107;-79
2021/09/16 02:02:19;;;;;;;23.63;16.98;;;17.90;99.90;;;;;;5013845;28;19942;-79
2021/09/16 02:04:45;;;;;;;;;;;18.00;99.90;;;;;;5013837;28;20364;-79
2021/09/16 02:07:10;;;;;;;23.83;17.90;;;18.00;99.90;;;;;;5013224;28;19918;-79
2021/09/16 02:09:36;;;;;;;;;;;17.40;99.90;;;;;;5013786;28;20034;-79
2021/09/16 02:12:02;;;;;;;24.52;17.73;;;17.30;99.90;;;;;;5013382;28;20377;-79
2021/09/16 02:14:27;;;;;;;;;;;17.10;99.90;;;;;;5013944;28;20060;-79
2021/09/16 02:16:53;;;;;;;24.95;17.85;;;17.00;99.90;;;;;;4995743;28;19909;-79
2021/09/16 02:19:19;;;;;;;;;;;17.00;99.90;;;;;;5013834;28;20080;-79
2021/09/16 02:21:44;;;;;;;34.63;23.80;;;17.10;99.90;;;;;;5013234;28;19909;-79
2021/09/16 02:24:10;;;;;;;;;;;16.90;99.90;;;;;;5013638;28;20014;-79
2021/09/16 02:26:36;;;;;;;27.95;19.38;;;17.10;99.90;;;;;;5013174;28;19913;-79
2021/09/16 02:29:01;;;;;;;;;;;17.30;99.90;;;;;;5013750;28;20029;-79
2021/09/16 02:31:27;;;;;;;22.17;17.13;;;17.40;99.90;;;;;;4995478;28;19909;-79
2021/09/16 02:33:53;;;;;;;;;;;17.60;99.90;;;;;;5013620;28;20394;-79
2021/09/16 02:36:19;;;;;;;24.63;18.83;;;17.60;99.90;;;;;;5013190;28;20389;-79
2021/09/16 02:38:44;;;;;;;;;;;17.60;99.90;;;;;;5013646;28;20396;-79
2021/09/16 02:41:10;;;;;;;26.23;20.13;;;17.50;99.90;;;;;;4995595;28;19905;-79
2021/09/16 02:43:35;;;;;;;;;;;17.30;99.90;;;;;;5013521;28;20033;-79
2021/09/16 02:46:01;;;;;;;29.25;21.10;;;17.40;99.90;;;;;;5013109;28;20000;-82
2021/09/16 02:48:27;;;;;;;;;;;17.50;99.90;;;;;;4995846;28;20034;-81
2021/09/16 02:50:52;;;;;;;31.55;23.30;;;17.60;99.90;;;;;;5012968;28;20285;-82
2021/09/16 02:53:18;;;;;;;;;;;17.70;99.90;;;;;;5013474;28;20018;-81
2021/09/16 02:55:44;;;;;;;32.92;22.13;;;17.80;99.90;;;;;;5013019;28;19905;-81
2021/09/16 02:58:09;;;;;;;;;;;17.90;99.90;;;;;;5013672;28;20441;-81
2021/09/16 03:00:35;;;;;;;30.50;22.00;;;17.90;99.90;;;;;;5013006;28;20000;-82
2021/09/16 03:03:01;;;;;;;;;;;17.90;99.90;;;;;;5013289;28;20368;-82
2021/09/16 03:05:27;;;;;;;33.97;24.77;;;18.00;99.90;;;;;;5012880;28;19945;-81
2021/09/16 03:07:52;;;;;;;;;;;17.90;99.90;;;;;;5013822;28;20054;-82
2021/09/16 03:10:18;;;;;;;34.70;23.90;;;17.80;99.90;;;;;;5016369;28;19910;-81
2021/09/16 03:12:44;;;;;;;;;;;17.60;99.90;;;;;;5016816;28;20096;-81
2021/09/16 03:15:11;;;;;;;30.83;22.58;;;17.70;99.90;;;;;;4998673;28;19905;-82
2021/09/16 03:17:36;;;;;;;28.75;21.88;;;17.70;99.90;;;;;;5016233;28;20076;-81
2021/09/16 03:20:03;;;;;;;;;;;17.80;99.90;;;;;;4999093;28;20117;-82
2021/09/16 03:22:28;;;;;;;31.55;24.23;;;17.80;99.90;;;;;;5016233;28;20358;-82
2021/09/16 03:24:54;;;;;;;;;;;17.80;99.90;;;;;;5016553;28;20032;-81
2021/09/16 03:27:20;;;;;;;30.17;22.35;;;17.70;99.90;;;;;;4998536;28;19906;-81
2021/09/16 03:29:45;;;;;;;;;;;17.80;99.90;;;;;;5016427;28;20406;-81
2021/09/16 03:32:11;;;;;;;29.90;24.15;;;17.80;99.90;;;;;;5016048;28;20285;-81
2021/09/16 03:34:37;;;;;;;;;;;17.60;99.90;;;;;;4998931;28;20029;-82
2021/09/16 03:37:03;;;;;;;30.80;23.27;;;17.60;99.90;;;;;;5016053;28;19949;-82
2021/09/16 03:39:29;;;;;;;27.08;20.45;;;17.60;99.90;;;;;;4998270;28;20033;-81
2021/09/16 03:41:54;;;;;;;;;;;17.60;99.90;;;;;;5016315;28;20486;-81
2021/09/16 03:44:20;;;;;;;35.97;26.40;;;17.50;99.90;;;;;;5015856;28;19905;-81
2021/09/16 03:46:46;;;;;;;;;;;17.40;99.90;;;;;;4998595;28;20068;-81
2021/09/16 03:49:12;;;;;;;28.75;22.30;;;17.60;99.90;;;;;;4998161;28;19952;-82
2021/09/16 03:51:37;;;;;;;;;;;17.60;99.90;;;;;;5016141;28;20398;-81
2021/09/16 03:54:03;;;;;;;28.25;22.80;;;17.60;99.90;;;;;;5015699;28;19909;-81
2021/09/16 03:56:29;;;;;;;;;;;17.60;99.90;;;;;;5015970;28;20022;-82
2021/09/16 03:58:55;;;;;;;27.80;22.40;;;17.50;99.90;;;;;;5015509;28;19956;-82
2021/09/16 04:01:20;;;;;;;27.73;22.08;;;17.60;99.90;;;;;;5015588;28;20108;-81
2021/09/16 04:03:46;;;;;;;;;;;17.60;99.90;;;;;;5015821;28;20061;-82
2021/09/16 04:06:12;;;;;;;28.70;22.48;;;17.60;99.90;;;;;;5015196;28;19913;-81
2021/09/16 04:08:38;;;;;;;;;;;17.70;99.90;;;;;;5016197;28;20030;-81
2021/09/16 04:11:04;;;;;;;31.20;23.80;;;17.70;99.90;;;;;;5015364;28;19964;-81
2021/09/16 04:13:29;;;;;;;34.28;24.98;;;17.50;99.90;;;;;;5015223;28;20076;-81
2021/09/16 04:15:55;;;;;;;;;;;17.60;99.90;;;;;;5015606;28;20026;-81
2021/09/16 04:18:21;;;;;;;31.00;23.48;;;17.70;99.90;;;;;;5015119;28;19912;-81
2021/09/16 04:20:46;;;;;;;;;;;17.60;99.90;;;;;;5014587;28;20072;-82
2021/09/16 04:23:12;;;;;;;31.75;23.98;;;17.60;99.90;;;;;;5015021;28;19906;-81
2021/09/16 04:25:38;;;;;;;;;;;17.60;99.90;;;;;;5015418;28;20033;-81
2021/09/16 04:28:03;;;;;;;29.27;22.25;;;17.50;99.90;;;;;;5014958;28;19913;-82
2021/09/16 04:30:29;;;;;;;;;;;17.50;99.90;;;;;;5015190;28;20368;-81
2021/09/16 04:32:55;;;;;;;31.63;23.80;;;17.50;99.90;;;;;;4997270;28;19956;-82
2021/09/16 04:35:20;;;;;;;;;;;17.40;99.90;;;;;;5015341;28;20022;-81
2021/09/16 04:37:46;;;;;;;34.60;26.23;;;17.30;99.90;;;;;;5014770;28;19912;-81
2021/09/16 04:40:12;;;;;;;;;;;17.20;99.90;;;;;;5015160;28;20018;-82
2021/09/16 04:42:38;;;;;;;29.75;23.02;;;17.20;99.90;;;;;;5014975;28;19913;-82
2021/09/16 04:45:04;;;;;;;;;;;17.10;99.90;;;;;;5015027;28;20061;-81
2021/09/16 04:47:30;;;;;;;31.42;23.17;;;17.10;99.90;;;;;;5014564;28;19913;-81
2021/09/16 04:49:55;;;;;;;;;;;17.20;99.90;;;;;;5014879;28;20030;-81
2021/09/16 04:52:21;;;;;;;37.45;28.55;;;17.00;99.90;;;;;;4996911;28;20003;-81
2021/09/16 04:54:48;;;;;;;;;;;16.90;99.90;;;;;;5015235;28;20022;-81
2021/09/16 04:57:13;;;;;;;45.10;30.83;;;16.70;99.90;;;;;;5014426;28;19909;-82
2021/09/16 04:59:39;;;;;;;;;;;16.50;99.90;;;;;;5014749;28;20023;-81
2021/09/16 05:02:05;;;;;;;35.72;25.90;;;16.40;99.90;;;;;;4996699;28;20285;-81
2021/09/16 05:04:30;;;;;;;;;;;16.50;99.90;;;;;;5014826;28;20129;-82
2021/09/16 05:06:56;;;;;;;39.65;28.63;;;16.70;99.90;;;;;;5014173;28;20000;-82
2021/09/16 05:09:22;;;;;;;;;;;16.70;99.90;;;;;;5014639;28;20026;-81
2021/09/16 05:11:48;;;;;;;42.70;29.48;;;16.40;99.90;;;;;;5014076;28;19944;-82
2021/09/16 05:14:14;;;;;;;42.47;30.08;;;16.40;99.90;;;;;;5014060;28;20025;-81
2021/09/16 05:16:41;;;;;;;;;;;16.40;99.90;;;;;;5014528;28;20022;-82
2021/09/16 05:19:07;;;;;;;38.45;27.90;;;16.50;99.90;;;;;;5014112;28;19906;-81
2021/09/16 05:21:32;;;;;;;;;;;16.70;99.90;;;;;;5014649;28;20093;-82
2021/09/16 05:23:58;;;;;;;38.95;27.08;;;16.70;99.90;;;;;;5014128;28;19964;-81
2021/09/16 05:26:23;;;;;;;;;;;16.90;99.90;;;;;;5014310;28;20494;-82
2021/09/16 05:28:49;;;;;;;39.70;29.63;;;16.90;99.90;;;;;;5013880;28;19969;-82
2021/09/16 05:31:15;;;;;;;;;;;16.80;99.90;;;;;;5013891;28;20092;-81
2021/09/16 05:33:41;;;;;;;38.28;27.67;;;16.80;99.90;;;;;;5014097;28;19928;-82
2021/09/16 05:36:06;;;;;;;;;;;16.80;99.90;;;;;;5014266;28;20057;-82
2021/09/16 05:38:32;;;;;;;38.33;28.73;;;16.90;99.90;;;;;;5013795;28;19905;-82
2021/09/16 05:40:58;;;;;;;;;;;17.00;99.90;;;;;;5014167;28;20032;-81
2021/09/16 05:43:24;;;;;;;43.95;29.38;;;17.00;99.90;;;;;;5013864;28;19988;-82
2021/09/16 05:45:50;;;;;;;;;;;17.10;99.90;;;;;;5014216;28;20026;-82
2021/09/16 05:48:16;;;;;;;39.08;28.08;;;16.90;99.90;;;;;;5013757;28;20365;-82
2021/09/16 05:50:42;;;;;;;37.83;29.05;;;16.90;99.90;;;;;;5013541;28;20057;-81
2021/09/16 05:53:09;;;;;;;34.50;26.42;;;16.80;99.90;;;;;;5013584;28;20097;-82
2021/09/16 05:55:39;;;;;;;34.10;25.88;;;16.90;99.90;;;;;;4995863;28;20033;-81
2021/09/16 05:58:05;;;;;;;39.88;29.33;;;17.20;99.90;;;;;;5013524;28;20022;-82
2021/09/16 06:00:31;;;;;;;33.45;25.80;;;17.00;99.90;;;;;;5013618;28;20385;-81
2021/09/16 06:02:56;;;;;;;;;;;17.00;99.90;;;;;;5013809;28;20022;-82
2021/09/16 06:05:22;;;;;;;35.25;24.77;;;17.10;99.90;;;;;;5013481;28;20329;-82
2021/09/16 06:07:48;;;;;;;;;;;17.10;99.90;;;;;;5013520;28;20073;-81
2021/09/16 06:10:14;;;;;;;31.83;23.50;;;17.20;99.90;;;;;;4995709;28;20369;-82
2021/09/16 06:12:41;;;;;;;30.85;23.60;;;17.10;99.90;;;;;;5013480;28;20052;-82
2021/09/16 06:15:07;;;;;;;41.75;28.92;;;17.30;99.90;;;;;;4995699;28;20032;-82
2021/09/16 06:17:33;;;;;;;34.25;25.48;;;17.20;99.90;;;;;;5013325;28;20033;-82
2021/09/16 06:19:59;;;;;;;;;;;17.10;99.90;;;;;;5013847;28;20026;-81
2021/09/16 06:22:25;;;;;;;38.85;26.88;;;17.30;99.90;;;;;;5013322;28;20330;-82
2021/09/16 06:24:50;;;;;;;;;;;17.00;99.90;;;;;;5013606;28;20080;-82
2021/09/16 06:27:16;;;;;;;34.25;24.70;;;17.10;99.90;;;;;;5013204;28;19912;-82
2021/09/16 06:29:42;;;;;;;;;;;17.30;99.90;;;;;;5013516;28;20544;-81
2021/09/16 06:32:07;;;;;;;31.50;23.52;;;17.30;99.90;;;;;;5013232;28;19906;-81
2021/09/16 06:34:33;;;;;;;;;;;17.30;99.90;;;;;;5013613;28;20034;-82
2021/09/16 06:37:00;;;;;;;45.60;27.40;;;17.00;99.90;;;;;;5013170;28;19909;-81
2021/09/16 06:39:25;;;;;;;28.77;22.30;;;17.00;99.90;;;;;;5013139;28;20049;-81
2021/09/16 06:41:51;;;;;;;;;;;17.00;99.90;;;;;;5013556;28;20060;-81
2021/09/16 06:44:17;;;;;;;30.23;21.85;;;17.20;99.90;;;;;;5016602;28;19905;-82
2021/09/16 06:46:42;;;;;;;;;;;17.10;99.90;;;;;;5017305;28;20057;-81
2021/09/16 06:49:08;;;;;;;29.50;20.10;;;17.10;99.90;;;;;;5016794;28;20286;-82
2021/09/16 06:51:34;;;;;;;;;;;17.20;99.90;;;;;;4999446;28;20084;-82
2021/09/16 06:54:00;;;;;;;30.63;21.58;;;17.50;99.90;;;;;;5017003;28;19912;-81
2021/09/16 06:56:27;;;;;;;28.58;21.25;;;17.80;99.90;;;;;;5016666;28;20033;-82
2021/09/16 06:58:53;;;;;;;31.60;23.27;;;17.40;99.90;;;;;;4998994;28;20045;-81
2021/09/16 07:01:18;;;;;;;;;;;17.60;99.90;;;;;;4999403;28;20057;-81
2021/09/16 07:03:46;;;;;;;30.52;23.08;;;17.50;99.90;;;;;;5016530;28;19909;-82
2021/09/16 07:06:12;;;;;;;27.63;20.77;;;17.40;99.90;;;;;;5016345;28;20064;-82
2021/09/16 07:08:38;;;;;;;24.10;19.52;;;17.50;99.90;;;;;;5016807;28;20036;-81
2021/09/16 07:11:04;;;;;;;27.20;22.20;;;17.70;99.90;;;;;;4998815;28;20095;-81
2021/09/16 07:13:29;;;;;;;;;;;17.80;99.90;;;;;;4999222;28;20031;-79
2021/09/16 07:15:55;;;;;;;26.05;20.23;;;17.60;99.90;;;;;;4998908;28;19988;-79
2021/09/16 07:18:21;;;;;;;26.92;19.50;;;18.00;99.90;;;;;;5016526;28;20014;-79
2021/09/16 07:20:47;;;;;;;;;;;18.20;99.90;;;;;;5016750;28;20029;-79
2021/09/16 07:23:12;;;;;;;23.10;18.50;;;18.10;99.90;;;;;;5016414;28;19962;-79
2021/09/16 07:25:38;;;;;;;24.45;19.77;;;18.10;99.90;;;;;;5016098;28;20394;-79
2021/09/16 07:28:04;;;;;;;22.48;19.00;;;18.30;99.90;;;;;;5016091;28;20029;-79
2021/09/16 07:30:30;;;;;;;24.50;19.65;;;18.50;99.90;;;;;;5015956;28;20561;-79
2021/09/16 07:32:56;;;;;;;25.00;19.48;;;18.20;99.90;;;;;;5016017;28;20026;-79
2021/09/16 07:35:22;;;;;;;31.38;25.25;;;18.20;99.90;;;;;;5015989;28;20054;-79
2021/09/16 07:37:48;;;;;;;24.95;20.23;;;17.90;99.90;;;;;;5016080;28;20372;-79
2021/09/16 07:40:14;;;;;;;30.77;23.40;;;18.30;99.90;;;;;;5016027;28;20498;-79
2021/09/16 07:42:40;;;;;;;22.38;19.73;;;18.10;99.90;;;;;;5015985;28;20069;-79
2021/09/16 07:45:06;;;;;;;20.67;17.90;;;18.00;99.90;;;;;;4998140;28;20052;-79
2021/09/16 07:47:32;;;;;;;22.50;19.38;;;18.30;99.90;;;;;;5015791;28;20029;-81
2021/09/16 07:49:58;;;;;;;26.35;20.55;;;18.50;99.90;;;;;;4997969;28;20030;-80
2021/09/16 07:52:24;;;;;;;22.60;17.90;;;18.50;99.90;;;;;;5015622;28;20033;-80
2021/09/16 07:54:49;;;;;;;20.70;16.77;;;18.70;99.90;;;;;;4997779;28;20052;-80
2021/09/16 07:57:15;;;;;;;21.77;16.75;;;18.90;99.90;;;;;;5015520;28;20084;-80
2021/09/16 07:59:41;;;;;;;23.67;18.67;;;19.20;99.90;;;;;;4997876;28;20117;-80
2021/09/16 08:02:07;;;;;;;21.13;18.15;;;19.10;99.90;;;;;;4997889;28;20041;-80
2021/09/16 08:04:32;;;;;;;19.02;15.15;;;19.00;99.90;;;;;;5015412;28;20495;-79
2021/09/16 08:06:58;;;;;;;21.02;17.95;;;18.90;99.90;;;;;;5015197;28;20038;-80
2021/09/16 08:09:25;;;;;;;22.50;16.88;;;18.80;99.90;;;;;;5015621;28;20025;-80
2021/09/16 08:11:51;;;;;;;19.63;15.88;;;18.70;99.90;;;;;;4997567;28;20033;-80
2021/09/16 08:14:17;;;;;;;20.73;15.10;;;18.50;99.90;;;;;;5015234;28;20022;-80
2021/09/16 08:16:43;;;;;;;18.05;14.63;;;18.70;99.90;;;;;;5015200;28;20026;-80
2021/09/16 08:19:09;;;;;;;16.42;13.43;;;19.50;99.90;;;;;;5015171;28;20509;-80
2021/09/16 08:21:35;;;;;;;16.85;12.82;;;19.90;99.90;;;;;;5015107;28;20164;-80
2021/09/16 08:24:02;;;;;;;17.27;14.10;;;20.00;99.90;;;;;;4997418;28;20080;-80
2021/09/16 08:26:28;;;;;;;15.88;12.60;;;20.00;99.90;;;;;;4997300;28;20117;-80
2021/09/16 08:28:54;;;;;;;18.75;14.98;;;20.10;99.90;;;;;;5014925;28;20110;-80
2021/09/16 08:31:20;;;;;;;17.98;13.90;;;19.90;99.90;;;;;;4997224;28;20080;-80
2021/09/16 08:33:47;;;;;;;17.38;13.35;;;20.00;99.90;;;;;;5014816;28;20080;-80
2021/09/16 08:36:13;;;;;;;17.70;14.38;;;20.20;99.90;;;;;;4997285;28;20022;-80
2021/09/16 08:38:39;;;;;;;22.65;17.70;;;20.30;99.90;;;;;;4997155;28;20435;-80
2021/09/16 08:41:05;;;;;;;19.95;16.15;;;20.10;99.90;;;;;;4997042;28;20122;-80
2021/09/16 08:43:33;;;;;;;22.00;17.58;;;20.20;99.90;;;;;;5014694;28;20093;-80
2021/09/16 08:46:00;;;;;;;19.65;15.52;;;19.70;99.90;;;;;;4997054;28;20100;-80
2021/09/16 08:48:27;;;;;;;17.40;14.27;;;20.00;99.90;;;;;;4996971;28;20030;-80
2021/09/16 08:50:55;;;;;;;18.23;14.95;;;19.70;99.90;;;;;;5014640;28;20026;-80
2021/09/16 08:53:27;;;;;;;20.25;16.08;;;19.80;99.90;;;;;;5014670;28;20060;-80
2021/09/16 08:55:54;;;;;;;16.40;13.07;;;19.40;99.90;;;;;;5014639;28;20474;-80
2021/09/16 08:58:25;;;;;;;18.50;14.38;;;19.90;99.90;;;;;;5014423;28;20030;-80
2021/09/16 09:00:51;;;;;;;25.35;17.00;;;19.90;99.90;;;;;;4996558;28;20030;-80
2021/09/16 09:03:17;;;;;;;16.73;13.93;;;19.70;99.90;;;;;;5014678;28;20056;-80
2021/09/16 09:05:43;;;;;;;18.40;14.25;;;20.00;99.90;;;;;;4996171;28;20065;-80
2021/09/16 09:08:10;;;;;;;17.88;12.77;;;20.40;99.90;;;;;;5014171;28;20042;-80
2021/09/16 09:10:47;;;;;;;21.58;15.25;;;20.70;99.90;;;;;;5014253;28;20113;-80
2021/09/16 09:13:18;;;;;;;16.98;13.60;;;20.80;99.90;;;;;;5014345;28;20097;-80
2021/09/16 09:15:47;;;;;;;17.52;14.10;;;20.60;99.90;;;;;;5014178;28;20022;-80
2021/09/16 09:18:15;;;;;;;17.83;14.20;;;20.40;99.90;;;;;;5014115;28;20018;-80
2021/09/16 09:21:07;;;;;;;17.48;13.88;;;20.30;99.90;;;;;;4996416;28;20453;-80
2021/09/16 09:23:36;;;;;;;17.10;13.90;;;20.00;99.90;;;;;;5014088;28;20454;-80
2021/09/16 09:26:22;;;;;;;16.23;13.05;;;19.70;99.90;;;;;;5013903;28;20076;-80
2021/09/16 09:28:50;;;;;;;18.92;13.95;;;19.80;99.90;;;;;;5013968;28;20032;-79
2021/09/16 09:31:19;;;;;;;22.20;16.60;;;20.10;99.90;;;;;;5013990;28;20454;-80
2021/09/16 09:33:48;;;;;;;18.55;14.40;;;20.00;99.90;;;;;;5013959;28;20025;-80
2021/09/16 09:36:23;;;;;;;18.52;13.88;;;20.20;99.90;;;;;;4996236;28;20407;-80
2021/09/16 09:38:52;;;;;;;21.95;16.33;;;20.40;99.90;;;;;;4995915;28;20072;-80
2021/09/16 09:41:29;;;;;;;25.75;19.58;;;20.20;99.90;;;;;;4996079;28;20091;-81
2021/09/16 09:44:09;;;;;;;16.88;13.52;;;19.20;99.90;;;;;;5013955;28;20029;-80
2021/09/16 09:46:47;;;;;;;14.75;11.43;;;20.20;99.90;;;;;;4995822;28;20033;-80
2021/09/16 09:49:17;;;;;;;17.70;14.15;;;20.60;99.90;;;;;;5014133;28;20032;-80
2021/09/16 09:51:54;;;;;;;15.75;12.25;;;21.00;99.90;;;;;;5013998;28;20075;-81
2021/09/16 09:54:38;;;;;;;15.07;11.25;;;20.90;99.90;;;;;;5013709;28;20018;-80
2021/09/16 09:57:18;;;;;;;18.48;12.95;;;21.30;99.90;;;;;;5013800;28;20509;-80
2021/09/16 09:59:57;;;;;;;28.25;10.70;;;21.90;99.90;;;;;;5013712;28;20037;-81
2021/09/16 10:02:44;;;;;;;13.20;8.52;;;27.90;99.90;;;;;;5013759;28;20097;-81
2021/09/16 10:05:32;;;;;;;10.93;6.85;;;31.80;86.00;;;;;;4995511;28;20108;-82
2021/09/16 10:08:09;;;;;;;9.43;6.60;;;36.30;71.20;;;;;;5013052;28;20079;-83
2021/09/16 10:10:38;;;;;;;11.20;8.55;;;39.70;57.80;;;;;;5013446;28;20022;-83
2021/09/16 10:13:06;;;;;;;8.45;5.70;;;37.30;51.80;;;;;;5013346;28;20026;-82
2021/09/16 10:15:32;;;;;;;10.95;7.78;;;36.70;55.90;;;;;;5013401;28;20078;-82
2021/09/16 10:17:58;;;;;;;10.02;7.75;;;38.70;51.90;;;;;;5014543;28;20149;-84
2021/09/16 10:20:26;;;;;;;9.20;6.03;;;38.50;51.00;;;;;;5017331;28;20096;-84
2021/09/16 10:22:55;;;;;;;8.95;5.75;;;38.70;51.40;;;;;;5017603;28;20073;-83
2021/09/16 10:25:24;;;;;;;8.63;5.35;;;39.20;51.40;;;;;;5017175;28;20478;-82
2021/09/16 10:28:04;;;;;;;9.73;4.53;;;37.60;50.80;;;;;;5017214;28;20046;-82
2021/09/16 10:30:35;;;;;;;8.73;4.82;;;35.00;53.20;;;;;;5017434;28;20026;-82
2021/09/16 10:33:09;;;;;;;9.98;4.38;;;34.80;55.90;;;;;;4999294;28;20030;-82
2021/09/16 10:35:37;;;;;;;9.68;5.82;;;31.70;58.20;;;;;;5017113;28;20037;-81
2021/09/16 10:38:25;;;;;;;8.48;4.95;;;28.70;65.90;;;;;;4999462;28;20084;-81
2021/09/16 10:41:12;;;;;;;9.10;5.03;;;28.00;70.10;;;;;;5017111;28;20029;-81
2021/09/16 10:43:43;;;;;;;10.25;5.90;;;27.80;72.40;;;;;;4999245;28;20060;-81
2021/09/16 10:46:40;;;;;;;8.88;5.63;;;28.10;72.50;;;;;;4999015;28;20113;-81
2021/09/16 10:49:24;;;;;;;11.02;6.88;;;27.40;74.10;;;;;;5017009;28;20033;-81
2021/09/16 10:51:53;;;;;;;12.57;8.02;;;26.30;78.90;;;;;;5016756;28;20032;-81
2021/09/16 10:54:28;;;;;;;11.85;7.88;;;25.90;81.20;;;;;;5017070;28;20033;-81
2021/09/16 10:57:41;;;;;;;13.18;6.90;;;25.80;82.60;;;;;;4999104;28;20092;-81
2021/09/16 11:00:17;;;;;;;11.52;7.45;;;26.30;83.40;;;;;;5014206;28;20049;-81
2021/09/16 11:02:47;;;;;;;9.30;5.90;;;30.80;73.80;;;;;;4998772;28;20045;-82
2021/09/16 11:05:21;;;;;;;11.02;4.90;;;30.80;67.50;;;;;;4998967;28;20042;-81
2021/09/16 11:07:50;;;;;;;11.97;6.47;;;30.20;68.50;;;;;;5016397;28;20521;-81
2021/09/16 11:10:16;;;;;;;9.65;6.25;;;29.90;67.90;;;;;;5016476;28;20454;-81
2021/09/16 11:12:50;;;;;;;9.30;5.13;;;29.80;69.40;;;;;;4998801;28;20057;-82
2021/09/16 11:15:26;;;;;;;10.43;5.38;;;30.20;68.90;;;;;;5016454;28;20018;-82
2021/09/16 11:18:01;;;;;;;9.07;4.80;;;32.50;64.80;;;;;;4998550;28;20080;-82
2021/09/16 11:20:27;;;;;;;9.20;5.05;;;36.10;58.30;;;;;;5016551;28;20044;-83
2021/09/16 11:22:53;;;;;;;10.32;6.00;;;37.00;55.00;;;;;;5016196;28;20376;-83
2021/09/16 11:25:19;;;;;;;10.27;5.85;;;39.50;50.00;;;;;;4998436;28;20022;-82
2021/09/16 11:27:44;;;;;;;9.95;5.07;;;39.40;49.60;;;;;;5016295;28;20061;-82
2021/09/16 11:30:16;;;;;;;8.75;3.70;;;36.90;50.10;;;;;;5015577;28;20080;-81
2021/09/16 11:32:43;;;;;;;9.73;4.50;;;33.10;55.20;;;;;;5016179;28;20482;-81
2021/09/16 11:35:18;;;;;;;8.93;4.38;;;31.00;59.20;;;;;;4998378;28;20025;-81
2021/09/16 11:37:46;;;;;;;9.02;5.05;;;30.10;62.50;;;;;;5016269;28;20114;-81
2021/09/16 11:40:24;;;;;;;8.70;4.28;;;29.10;64.70;;;;;;4998358;28;20372;-81
2021/09/16 11:42:55;;;;;;;10.10;5.50;;;28.70;66.50;;;;;;4998285;28;20083;-81
2021/09/16 11:45:24;;;;;;;10.38;5.82;;;28.00;68.50;;;;;;5015989;28;20018;-82
2021/09/16 11:48:08;;;;;;;10.32;5.43;;;32.90;62.50;;;;;;4998154;28;20034;-83
2021/09/16 11:50:44;;;;;;;8.05;4.70;;;37.40;53.20;;;;;;4997782;28;20421;-84
2021/09/16 11:53:18;;;;;;;8.45;4.72;;;39.30;51.60;;;;;;5015703;28;20022;-83
2021/09/16 11:55:46;;;;;;;8.38;5.90;;;41.60;47.60;;;;;;4997732;28;20022;-83
2021/09/16 11:58:21;;;;;;;7.43;5.03;;;44.20;45.10;;;;;;5015815;28;20033;-84
2021/09/16 12:00:53;;;;;;;8.48;5.85;;;41.60;44.90;;;;;;5015498;28;20084;-83
2021/09/16 12:03:27;;;;;;;11.07;7.70;;;43.90;43.10;;;;;;5015626;28;20034;-83
2021/09/16 12:05:58;;;;;;;11.10;10.00;;;46.30;41.40;;;;;;5015205;28;20030;-84
2021/09/16 12:08:32;;;;;;;11.75;10.50;;;49.00;38.90;;;;;;4997573;28;20168;-84
2021/09/16 12:11:16;;;;;;;13.98;12.68;;;48.80;37.80;;;;;;4997436;28;20379;-84
2021/09/16 12:13:50;;;;;;;12.90;11.70;;;49.00;36.70;;;;;;4997690;28;20046;-84
2021/09/16 12:16:31;;;;;;;14.00;12.73;;;47.70;37.00;;;;;;5015319;28;20064;-85
2021/09/16 12:19:01;;;;;;;18.30;16.80;;;47.00;37.20;;;;;;5015424;28;20026;-82
2021/09/16 12:21:32;;;;;;;10.40;8.40;;;50.90;36.00;;;;;;5015171;28;20479;-81
2021/09/16 12:24:19;;;;;;;9.93;6.82;;;42.60;37.50;;;;;;4997300;28;20022;-82
2021/09/16 12:26:48;;;;;;;11.38;8.75;;;45.60;38.80;;;;;;5014790;28;20080;-81
2021/09/16 12:29:25;;;;;;;8.68;6.70;;;46.40;37.80;;;;;;4997433;28;20105;-81
2021/09/16 12:32:07;;;;;;;8.30;6.50;;;45.50;38.20;;;;;;5014927;28;20033;-81
2021/09/16 12:34:35;;;;;;;8.43;4.82;;;43.90;36.80;;;;;;5015031;28;20528;-81
2021/09/16 12:37:09;;;;;;;10.30;6.35;;;42.90;37.90;;;;;;5014853;28;20049;-81
2021/09/16 12:39:44;;;;;;;7.07;4.50;;;47.50;36.90;;;;;;5014702;28;20062;-80
2021/09/16 12:42:14;;;;;;;7.18;3.50;;;41.90;38.10;;;;;;5014768;28;20077;-83
2021/09/16 12:44:41;;;;;;;6.65;3.40;;;40.20;40.70;;;;;;5015138;28;20386;-83
2021/09/16 12:47:08;;;;;;;8.77;3.75;;;40.10;41.00;;;;;;5014801;28;20094;-82
2021/09/16 12:49:47;;;;;;;8.45;3.60;;;36.40;44.20;;;;;;4997085;28;20029;-81
2021/09/16 12:52:22;;;;;;;7.70;3.50;;;32.50;50.20;;;;;;4996747;28;20398;-82
2021/09/16 12:54:55;;;;;;;7.38;3.30;;;30.90;53.20;;;;;;4996771;28;20036;-81
2021/09/16 12:57:29;;;;;;;8.73;4.20;;;30.60;54.70;;;;;;5014565;28;20018;-81